Time;durP1;ratioP1;P1;durP2;ratioP2;P2;SDS_P1;SDS_P2;PMS_P1;PMS_P2;Temp;Humidity;BMP_temperature;BMP_pressure;BME280_temperature;BME280_humidity;BME280_pressure;Samples;Min_cycle;Max_cycle;Signal;HPM_P1;HPM_P2
2023/04/17 00:01:36;;;;;;;33.58;23.95;;;;;;;10.79;70.51;102481.84;5072226;28;20032;-67
2023/04/17 00:04:03;;;;;;;34.80;25.50;;;;;;;10.79;70.78;102479.06;5060334;28;20402;-67
2023/04/17 00:06:28;;;;;;;33.50;24.15;;;;;;;10.79;70.68;102484.63;5053256;28;20031;-66
2023/04/17 00:08:54;;;;;;;37.28;25.70;;;;;;;10.79;71.17;102478.22;5058430;28;20029;-66
2023/04/17 00:11:20;;;;;;;34.35;24.25;;;;;;;10.77;70.93;102480.38;5072209;28;20024;-66
2023/04/17 00:13:45;;;;;;;35.72;25.05;;;;;;;10.74;71.04;102481.66;5078859;28;20090;-66
2023/04/17 00:16:12;;;;;;;35.15;24.80;;;;;;;10.76;71.02;102478.63;5092064;28;20116;-66
2023/04/17 00:18:38;;;;;;;35.97;25.90;;;;;;;10.73;71.06;102476.31;5092133;28;20028;-67
2023/04/17 00:21:03;;;;;;;35.50;25.00;;;;;;;10.76;70.95;102473.94;5091559;28;20023;-67
2023/04/17 00:23:28;;;;;;;36.17;25.77;;;;;;;10.76;70.92;102478.63;5081390;28;20501;-67
2023/04/17 00:25:54;;;;;;;38.15;25.83;;;;;;;10.70;71.07;102465.63;5072309;28;20119;-67
2023/04/17 00:28:19;;;;;;;35.30;25.10;;;;;;;10.72;71.14;102467.09;5071902;28;20020;-67
2023/04/17 00:30:45;;;;;;;36.38;25.73;;;;;;;10.74;71.28;102459.44;5078854;28;20027;-67
2023/04/17 00:33:10;;;;;;;39.28;26.40;;;;;;;10.70;71.26;102465.63;5091611;28;20039;-66
2023/04/17 00:35:35;;;;;;;32.70;25.02;;;;;;;10.71;70.78;102459.84;5091910;28;20027;-66
2023/04/17 00:38:01;;;;;;;35.38;25.25;;;;;;;10.76;71.00;102459.19;5090604;28;20837;-67
2023/04/17 00:40:26;;;;;;;34.40;25.48;;;;;;;10.70;70.91;102458.16;5092268;28;20020;-66
2023/04/17 00:42:54;;;;;;;35.45;24.10;;;;;;;10.71;70.80;102451.53;5087533;28;20043;-66
2023/04/17 00:45:20;;;;;;;32.83;24.10;;;;;;;10.72;70.86;102456.00;5092109;28;20024;-67
2023/04/17 00:47:47;;;;;;;37.05;25.33;;;;;;;10.70;70.90;102458.16;5092115;28;20028;-67
2023/04/17 00:50:12;;;;;;;31.77;24.23;;;;;;;10.69;70.74;102456.44;5091289;28;20115;-66
2023/04/17 00:52:38;;;;;;;32.47;25.27;;;;;;;10.66;70.88;102450.47;5086597;28;20115;-67
2023/04/17 00:55:04;;;;;;;40.03;26.35;;;;;;;10.62;70.90;102466.69;5079553;28;20028;-67
2023/04/17 00:57:29;;;;;;;34.80;25.40;;;;;;;10.65;70.67;102457.06;5090531;28;20125;-66
2023/04/17 00:59:56;;;;;;;34.40;24.05;;;;;;;10.64;70.77;102449.81;5076141;28;20025;-66
2023/04/17 01:02:22;;;;;;;36.53;25.58;;;;;;;10.63;70.83;102451.75;5070999;28;20028;-66
2023/04/17 01:04:47;;;;;;;34.78;24.48;;;;;;;10.61;70.67;102445.56;5070625;28;20038;-66
2023/04/17 01:07:12;;;;;;;33.45;23.65;;;;;;;10.60;71.09;102457.72;5071062;28;20032;-67
2023/04/17 01:09:37;;;;;;;33.75;25.33;;;;;;;10.63;71.28;102448.97;5082328;28;20371;-66
2023/04/17 01:12:20;;;;;;;33.15;24.10;;;;;;;10.66;70.49;102453.25;5090007;28;20024;-66
2023/04/17 01:14:46;;;;;;;;;;;;;;;10.77;70.48;102453.44;5087553;28;20067;-67
2023/04/17 01:17:14;;;;;;;32.97;24.55;;;;;;;10.66;70.59;102453.25;5091578;28;20000;-67
2023/04/17 01:19:40;;;;;;;36.22;24.95;;;;;;;10.64;70.61;102458.16;5090664;28;20032;-67
2023/04/17 01:22:06;;;;;;;34.63;24.38;;;;;;;10.64;70.92;102458.16;5082178;28;20025;-66
2023/04/17 01:24:32;;;;;;;35.08;25.38;;;;;;;10.60;70.88;102454.94;5070535;28;20028;-66
2023/04/17 01:26:57;;;;;;;37.13;24.20;;;;;;;10.63;70.91;102462.00;5069881;28;20422;-67
2023/04/17 01:29:22;;;;;;;34.72;24.92;;;;;;;10.62;70.73;102455.59;5080276;28;20143;-66
2023/04/17 01:31:48;;;;;;;34.17;22.83;;;;;;;10.62;70.70;102461.16;5071752;28;20077;-66
2023/04/17 01:34:13;;;;;;;31.77;23.45;;;;;;;10.60;70.47;102457.72;5087659;28;20124;-66
2023/04/17 01:36:38;;;;;;;33.05;24.10;;;;;;;10.59;70.20;102456.03;5090804;28;20054;-66
2023/04/17 01:39:04;;;;;;;30.42;24.20;;;;;;;10.57;70.39;102466.47;5090378;28;20073;-66
2023/04/17 01:41:29;;;;;;;33.42;23.42;;;;;;;10.55;70.34;102457.50;5090643;28;20028;-68
2023/04/17 01:43:54;;;;;;;33.75;23.80;;;;;;;10.55;70.33;102463.91;5090403;28;20361;-68
2023/04/17 01:46:19;;;;;;;31.45;23.00;;;;;;;10.58;70.31;102459.88;5081426;28;20040;-67
2023/04/17 01:48:45;;;;;;;30.98;23.02;;;;;;;10.58;69.90;102465.41;5070284;28;20025;-68
2023/04/17 01:51:10;;;;;;;30.58;22.50;;;;;;;10.51;69.84;102459.84;5082334;28;20051;-68
2023/04/17 01:53:38;;;;;;;33.30;24.40;;;;;;;10.53;70.08;102456.84;5089459;28;20039;-67
2023/04/17 01:56:03;;;;;;;35.33;23.73;;;;;;;10.51;70.30;102453.47;5090999;28;20391;-67
2023/04/17 01:58:29;;;;;;;35.95;23.65;;;;;;;10.52;70.44;102466.25;5090417;28;20035;-65
2023/04/17 02:00:54;;;;;;;33.28;24.48;;;;;;;10.52;70.42;102467.13;5081339;28;20031;-65
2023/04/17 02:03:19;;;;;;;32.13;23.50;;;;;;;10.52;70.60;102463.50;5071863;28;20033;-65
2023/04/17 02:05:46;;;;;;;31.00;23.15;;;;;;;10.50;70.70;102469.25;5090847;28;20106;-66
2023/04/17 02:08:12;;;;;;;30.65;24.08;;;;;;;10.49;70.64;102470.34;5082813;28;20036;-66
2023/04/17 02:10:37;;;;;;;34.55;23.63;;;;;;;10.50;70.68;102469.25;5070737;28;20040;-67
2023/04/17 02:13:03;;;;;;;30.95;22.67;;;;;;;10.36;70.33;102467.53;5073605;28;20419;-65
2023/04/17 02:15:28;;;;;;;32.13;22.85;;;;;;;10.39;70.12;102460.72;5070003;28;20478;-66
2023/04/17 02:17:53;;;;;;;27.92;22.10;;;;;;;10.40;70.01;102460.50;5080042;28;20077;-66
2023/04/17 02:20:18;;;;;;;31.17;22.30;;;;;;;10.41;69.75;102462.19;5089068;28;20043;-66
2023/04/17 02:22:44;;;;;;;27.95;21.45;;;;;;;10.40;69.58;102456.88;5070031;28;20028;-66
2023/04/17 02:25:09;;;;;;;30.63;22.35;;;;;;;10.40;69.98;102463.28;5068912;28;20040;-66
2023/04/17 02:27:35;;;;;;;30.05;22.63;;;;;;;10.39;69.81;102461.56;5072255;28;20039;-66
2023/04/17 02:30:00;;;;;;;32.30;22.00;;;;;;;10.35;69.72;102457.50;5082437;28;20036;-67
2023/04/17 02:32:27;;;;;;;30.55;22.88;;;;;;;10.41;69.75;102466.91;5076704;28;20414;-66
2023/04/17 02:34:53;;;;;;;28.35;22.45;;;;;;;10.34;69.56;102463.28;5085389;28;20032;-66
2023/04/17 02:37:18;;;;;;;32.25;23.08;;;;;;;10.35;69.75;102457.50;5090992;28;20036;-66
2023/04/17 02:39:44;;;;;;;29.40;22.70;;;;;;;10.39;70.17;102464.34;5091562;28;20062;-67
2023/04/17 02:42:11;;;;;;;32.53;23.08;;;;;;;10.39;70.00;102466.28;5086142;28;20113;-67
2023/04/17 02:44:37;;;;;;;32.75;23.42;;;;;;;10.43;69.98;102462.84;5092128;28;20080;-67
2023/04/17 02:47:02;;;;;;;33.40;23.00;;;;;;;10.41;69.79;102459.41;5087876;28;20040;-67
2023/04/17 02:49:27;;;;;;;30.77;24.10;;;;;;;10.41;70.17;102462.19;5090557;28;20032;-67
2023/04/17 02:51:53;;;;;;;34.15;24.63;;;;;;;10.41;70.10;102464.97;5086203;28;20089;-67
2023/04/17 02:54:18;;;;;;;36.28;24.65;;;;;;;10.40;70.05;102462.41;5089534;28;20538;-67
2023/04/17 02:56:43;;;;;;;34.55;24.58;;;;;;;10.41;70.16;102469.66;5081207;28;20027;-67
2023/04/17 02:59:09;;;;;;;35.00;23.98;;;;;;;10.41;70.27;102466.91;5086652;28;20491;-67
2023/04/17 03:01:37;;;;;;;36.22;25.70;;;;;;;10.31;70.31;102467.34;5083935;28;20035;-67
2023/04/17 03:04:02;;;;;;;39.60;27.27;;;;;;;10.28;70.56;102465.81;5078388;28;20040;-67
2023/04/17 03:06:29;;;;;;;39.53;26.60;;;;;;;10.34;70.45;102469.69;5090105;28;20104;-67
2023/04/17 03:08:54;;;;;;;37.33;27.02;;;;;;;10.34;70.66;102468.84;5091362;28;20028;-67
2023/04/17 03:11:20;;;;;;;36.85;25.83;;;;;;;10.35;70.35;102474.16;5087129;28;20471;-67
2023/04/17 03:13:45;;;;;;;39.70;26.98;;;;;;;10.28;70.80;102474.16;5074643;28;20047;-67
2023/04/17 03:16:11;;;;;;;40.25;26.83;;;;;;;10.30;70.80;102471.19;5077274;28;20024;-67
2023/04/17 03:18:39;;;;;;;39.92;26.80;;;;;;;10.31;70.83;102472.88;5073318;28;20400;-67
2023/04/17 03:21:04;;;;;;;41.28;28.42;;;;;;;10.27;71.29;102472.44;5090744;28;20024;-67
2023/04/17 03:23:30;;;;;;;42.17;26.98;;;;;;;10.28;71.02;102473.28;5090994;28;20058;-67
2023/04/17 03:25:55;;;;;;;38.70;26.77;;;;;;;10.31;71.16;102478.44;5079610;28;20074;-67
2023/04/17 03:28:21;;;;;;;42.03;27.25;;;;;;;10.30;71.08;102473.94;5072442;28;20823;-67
2023/04/17 03:30:46;;;;;;;38.40;26.17;;;;;;;10.30;71.00;102479.50;5086094;28;20103;-66
2023/04/17 03:33:11;;;;;;;37.75;26.60;;;;;;;10.27;71.12;102472.44;5092494;28;20046;-67
2023/04/17 03:35:37;;;;;;;41.53;26.80;;;;;;;10.27;71.23;102474.38;5077077;28;20048;-67
2023/04/17 03:38:02;;;;;;;42.33;26.70;;;;;;;10.28;71.23;102473.28;5091687;28;20036;-67
2023/04/17 03:40:27;;;;;;;39.58;27.05;;;;;;;10.28;71.36;102464.97;5075096;28;20472;-67
2023/04/17 03:42:53;;;;;;;42.85;27.27;;;;;;;10.25;71.41;102468.16;5072767;28;20044;-67
2023/04/17 03:45:18;;;;;;;41.00;27.98;;;;;;;10.21;71.40;102466.84;5088943;28;20031;-66
2023/04/17 03:47:43;;;;;;;38.00;26.55;;;;;;;10.23;71.47;102473.06;5083745;28;20055;-67
2023/04/17 03:50:09;;;;;;;38.90;26.77;;;;;;;10.24;71.39;102470.06;5089196;28;20115;-67
2023/04/17 03:52:34;;;;;;;36.33;26.45;;;;;;;10.24;71.54;102470.06;5092033;28;20483;-67
2023/04/17 03:55:00;;;;;;;36.03;26.33;;;;;;;10.24;72.03;102467.28;5093382;28;20073;-67
2023/04/17 03:57:25;;;;;;;39.72;26.70;;;;;;;10.23;71.64;102465.59;5090723;28;20149;-67
2023/04/17 03:59:51;;;;;;;38.00;26.30;;;;;;;10.24;71.54;102469.19;5072374;28;20021;-67
2023/04/17 04:02:16;;;;;;;36.65;25.98;;;;;;;10.20;71.46;102474.31;5072975;28;20371;-66
2023/04/17 04:04:41;;;;;;;38.53;26.80;;;;;;;10.22;71.47;102472.19;5081637;28;20562;-67
2023/04/17 04:07:07;;;;;;;39.38;26.13;;;;;;;10.17;71.46;102474.72;5091832;28;20111;-67
2023/04/17 04:09:32;;;;;;;38.92;27.98;;;;;;;10.18;71.61;102475.59;5092685;28;20440;-67
2023/04/17 04:11:57;;;;;;;38.85;26.92;;;;;;;10.18;71.61;102470.03;5092809;28;20036;-67
2023/04/17 04:14:23;;;;;;;35.20;25.67;;;;;;;10.16;71.74;102466.63;5091752;28;20044;-67
2023/04/17 04:16:48;;;;;;;37.63;26.00;;;;;;;10.15;71.81;102464.94;5092190;28;20035;-67
2023/04/17 04:19:13;;;;;;;38.00;26.88;;;;;;;10.12;72.12;102473.66;5083027;28;20032;-67
2023/04/17 04:21:40;;;;;;;37.85;27.13;;;;;;;10.12;71.62;102473.66;5085761;28;20481;-67
2023/04/17 04:24:07;;;;;;;39.33;27.45;;;;;;;10.13;71.99;102472.59;5091985;28;20520;-66
2023/04/17 04:26:32;;;;;;;36.80;26.50;;;;;;;10.13;72.07;102469.81;5092500;28;20088;-66
2023/04/17 04:28:58;;;;;;;37.70;26.13;;;;;;;10.14;72.16;102480.72;5091746;28;20463;-66
2023/04/17 04:31:25;;;;;;;38.50;27.23;;;;;;;10.12;72.19;102476.44;5092289;28;20032;-66
2023/04/17 04:33:53;;;;;;;40.05;26.80;;;;;;;10.11;72.12;102480.28;5080170;28;20498;-66
2023/04/17 04:36:19;;;;;;;38.80;26.65;;;;;;;10.09;72.21;102481.34;5072164;28;20028;-66
2023/04/17 04:38:45;;;;;;;38.42;27.08;;;;;;;10.15;71.88;102481.59;5074374;28;20046;-66
2023/04/17 04:41:10;;;;;;;41.35;28.35;;;;;;;10.11;72.29;102485.84;5071795;28;20025;-66
2023/04/17 04:43:36;;;;;;;41.53;27.00;;;;;;;10.09;72.25;102488.81;5071295;28;20028;-66
2023/04/17 04:46:02;;;;;;;40.28;26.85;;;;;;;10.12;71.86;102493.09;5076852;28;20541;-66
2023/04/17 04:48:28;;;;;;;39.20;27.42;;;;;;;10.08;72.13;102493.50;5081299;28;20040;-67
2023/04/17 04:50:56;;;;;;;40.58;26.98;;;;;;;10.08;72.60;102492.66;5070814;28;20357;-66
2023/04/17 04:53:21;;;;;;;38.35;26.02;;;;;;;10.07;72.23;102497.34;5072340;28;20040;-66
2023/04/17 04:55:47;;;;;;;35.35;25.95;;;;;;;10.09;72.19;102492.44;5070098;28;20025;-66
2023/04/17 04:58:12;;;;;;;38.78;27.02;;;;;;;10.14;72.02;102490.94;5072401;28;20085;-67
2023/04/17 05:00:38;;;;;;;41.10;26.88;;;;;;;10.10;72.10;102493.31;5069429;28;20021;-67
2023/04/17 05:03:03;;;;;;;37.35;26.48;;;;;;;10.05;72.56;102488.38;5085615;28;20387;-66
2023/04/17 05:05:28;;;;;;;40.47;28.42;;;;;;;10.08;72.49;102492.66;5091875;28;20051;-66
2023/04/17 05:07:54;;;;;;;40.55;26.65;;;;;;;10.06;72.50;102500.31;5078758;28;20380;-67
2023/04/17 05:10:20;;;;;;;42.42;27.55;;;;;;;10.04;72.84;102500.53;5077171;28;20036;-67
2023/04/17 05:12:45;;;;;;;39.97;27.45;;;;;;;10.09;72.73;102495.22;5090756;28;20020;-66
2023/04/17 05:15:11;;;;;;;41.05;27.65;;;;;;;10.02;72.67;102502.69;5085942;28;21939;-66
2023/04/17 05:17:37;;;;;;;41.72;28.27;;;;;;;10.04;72.66;102508.00;5076721;28;20032;-67
2023/04/17 05:20:08;;;;;;;43.08;28.52;;;;;;;10.04;72.74;102513.56;5091622;28;20036;-66
2023/04/17 05:22:33;;;;;;;39.60;27.65;;;;;;;10.02;72.52;102508.22;5091682;28;20120;-68
2023/04/17 05:24:59;;;;;;;39.22;28.40;;;;;;;10.02;72.87;102511.00;5089975;28;20107;-68
2023/04/17 05:27:25;;;;;;;39.40;28.15;;;;;;;10.03;72.82;102515.47;5077693;28;20032;-68
2023/04/17 05:29:51;;;;;;;44.70;29.33;;;;;;;9.99;73.12;102528.06;5080818;28;20033;-68
2023/04/17 05:32:19;;;;;;;39.50;29.27;;;;;;;10.00;72.81;102517.81;5073823;28;20033;-68
2023/04/17 05:34:47;;;;;;;39.88;28.58;;;;;;;10.02;72.69;102515.66;5082290;28;20028;-69
2023/04/17 05:37:12;;;;;;;43.15;28.75;;;;;;;10.02;73.10;102516.56;5073665;28;20077;-69
2023/04/17 05:39:38;;;;;;;41.10;29.70;;;;;;;9.98;72.75;102515.25;5070734;28;20472;-69
2023/04/17 05:42:03;;;;;;;43.83;29.02;;;;;;;10.01;72.96;102516.75;5070375;28;20060;-68
2023/04/17 05:44:29;;;;;;;41.75;29.65;;;;;;;9.93;72.84;102517.78;5077055;28;20051;-67
2023/04/17 05:47:02;;;;;;;39.42;28.48;;;;;;;9.98;73.29;102523.59;5070542;28;20578;-68
2023/04/17 05:49:27;;;;;;;42.45;30.33;;;;;;;10.01;73.09;102525.06;5069873;28;20055;-68
2023/04/17 05:51:53;;;;;;;43.63;29.40;;;;;;;9.96;73.17;102522.06;5078132;28;20596;-67
2023/04/17 05:54:18;;;;;;;42.58;29.52;;;;;;;9.98;72.87;102520.81;5070287;28;20025;-68
2023/04/17 05:56:44;;;;;;;42.80;30.48;;;;;;;9.98;73.02;102523.59;5068568;28;20028;-66
2023/04/17 05:59:09;;;;;;;45.35;30.20;;;;;;;9.98;73.23;102523.59;5069414;28;20484;-67
2023/04/17 06:01:35;;;;;;;44.30;31.05;;;;;;;9.97;73.10;102532.94;5088341;28;20020;-67
2023/04/17 06:04:00;;;;;;;44.30;30.60;;;;;;;9.98;73.34;102523.59;5090485;28;20028;-67
2023/04/17 06:06:26;;;;;;;45.90;30.15;;;;;;;10.00;73.25;102529.75;5089756;28;20421;-67
2023/04/17 06:08:53;;;;;;;45.28;31.33;;;;;;;9.96;73.40;102534.03;5072369;28;20112;-67
2023/04/17 06:11:19;;;;;;;43.03;31.13;;;;;;;10.01;73.20;102530.63;5068397;28;20456;-68
2023/04/17 06:13:44;;;;;;;47.10;30.35;;;;;;;9.94;73.34;102538.94;5086668;28;20063;-68
2023/04/17 06:16:09;;;;;;;42.47;30.23;;;;;;;9.99;72.89;102539.16;5086251;28;20093;-67
2023/04/17 06:18:35;;;;;;;51.17;31.70;;;;;;;9.95;73.33;102534.25;5077647;28;20421;-67
2023/04/17 06:21:00;;;;;;;45.08;30.38;;;;;;;9.97;72.91;102535.72;5067290;28;20040;-68
2023/04/17 06:23:25;;;;;;;47.45;30.75;;;;;;;9.96;73.31;102533.16;5067327;28;20024;-69
2023/04/17 06:25:51;;;;;;;46.90;30.90;;;;;;;9.95;73.31;102548.97;5067290;28;20054;-67
2023/04/17 06:28:16;;;;;;;44.80;31.17;;;;;;;9.94;73.53;102546.38;5066407;28;20029;-68
2023/04/17 06:30:41;;;;;;;45.13;30.70;;;;;;;9.97;73.15;102549.59;5064848;28;20038;-67
2023/04/17 06:33:09;;;;;;;44.30;30.58;;;;;;;9.96;73.10;102550.66;5068604;28;20025;-66
2023/04/17 06:35:36;;;;;;;43.55;29.98;;;;;;;9.96;73.30;102558.97;5069389;28;20035;-66
2023/04/17 06:38:02;;;;;;;50.88;33.25;;;;;;;9.98;73.40;102558.75;5075574;28;20387;-65
2023/04/17 06:40:27;;;;;;;49.78;32.25;;;;;;;9.96;73.42;102556.22;5078445;28;20024;-65
2023/04/17 06:42:52;;;;;;;47.33;31.67;;;;;;;9.98;73.49;102553.22;5073009;28;20116;-65
2023/04/17 06:45:18;;;;;;;42.83;30.48;;;;;;;10.02;73.39;102560.06;5081981;28;20039;-65
2023/04/17 06:47:45;;;;;;;46.90;32.45;;;;;;;9.98;73.30;102561.53;5082762;28;20036;-66
2023/04/17 06:50:10;;;;;;;45.28;31.88;;;;;;;10.02;73.19;102554.50;5070948;28;20046;-66
2023/04/17 06:52:36;;;;;;;45.35;31.80;;;;;;;10.02;73.21;102557.28;5084618;28;20024;-65
2023/04/17 06:55:01;;;;;;;47.80;31.55;;;;;;;10.00;73.05;102557.50;5080564;28;20071;-66
2023/04/17 06:57:26;;;;;;;46.13;31.30;;;;;;;10.02;73.35;102577.59;5082631;28;20479;-67
2023/04/17 06:59:51;;;;;;;43.05;30.88;;;;;;;10.06;73.04;102573.34;5069040;28;20048;-65
2023/04/17 07:02:17;;;;;;;43.45;30.17;;;;;;;10.04;72.59;102580.16;5068856;28;20579;-65
2023/04/17 07:04:42;;;;;;;48.33;31.13;;;;;;;10.03;72.69;102581.22;5076485;28;20032;-64
2023/04/17 07:07:08;;;;;;;45.92;31.23;;;;;;;10.05;73.22;102576.28;5085918;28;20067;-65
2023/04/17 07:09:33;;;;;;;49.58;32.67;;;;;;;10.01;73.57;102584.19;5071254;28;20029;-66
2023/04/17 07:11:58;;;;;;;49.50;32.28;;;;;;;10.02;73.41;102588.69;5069584;28;20115;-65
2023/04/17 07:14:24;;;;;;;46.38;32.03;;;;;;;10.04;73.48;102592.09;5060850;28;20533;-65
2023/04/17 07:16:49;;;;;;;47.70;32.05;;;;;;;10.08;73.01;102598.09;5061205;28;20044;-60
2023/04/17 07:19:15;;;;;;;48.63;31.77;;;;;;;10.10;73.29;102584.88;5050709;28;20036;-64
2023/04/17 07:21:40;;;;;;;49.15;31.63;;;;;;;10.11;72.85;102596.81;5056740;28;20041;-64
2023/04/17 07:24:06;;;;;;;49.55;31.50;;;;;;;10.11;73.09;102591.28;5057786;28;20029;-68
2023/04/17 07:26:31;;;;;;;46.03;31.35;;;;;;;10.12;72.87;102592.97;5058605;28;20115;-65
2023/04/17 07:28:59;;;;;;;45.25;31.63;;;;;;;10.13;72.81;102611.34;5050756;28;20098;-68
2023/04/17 07:31:25;;;;;;;49.55;33.00;;;;;;;10.13;72.53;102605.78;5063591;28;20025;-65
2023/04/17 07:33:51;;;;;;;49.88;32.35;;;;;;;10.15;72.61;102603.66;5051572;28;20090;-63
2023/04/17 07:36:16;;;;;;;48.63;33.33;;;;;;;10.09;72.60;102608.97;5048857;28;20029;-70
2023/04/17 07:38:41;;;;;;;36.00;25.05;;;;;;;10.28;74.14;102601.81;5066426;28;20060;-66
2023/04/17 07:41:07;;;;;;;45.65;31.55;;;;;;;10.26;72.54;102601.19;5064391;28;20480;-67
2023/04/17 07:43:32;;;;;;;49.35;32.00;;;;;;;10.24;72.84;102607.97;5072386;28;20031;-67
2023/04/17 07:45:57;;;;;;;36.53;25.85;;;;;;;10.38;73.79;102600.59;5063158;28;20558;-67
2023/04/17 07:48:23;;;;;;;47.78;33.28;;;;;;;10.32;72.53;102600.31;5064710;28;20352;-67
2023/04/17 07:50:49;;;;;;;47.67;32.88;;;;;;;10.31;72.22;102611.66;5061429;28;20020;-60
2023/04/17 07:53:16;;;;;;;47.35;33.13;;;;;;;10.30;71.97;102608.03;5059471;28;20480;-67
2023/04/17 07:55:41;;;;;;;47.28;32.83;;;;;;;10.31;72.19;102614.44;5062010;28;20054;-66
2023/04/17 07:58:08;;;;;;;47.25;32.22;;;;;;;10.32;72.10;102607.81;5059130;28;20033;-66
2023/04/17 08:00:33;;;;;;;47.60;34.10;;;;;;;10.30;71.78;102608.03;5067954;28;20025;-66
2023/04/17 08:03:00;;;;;;;55.33;34.55;;;;;;;10.31;72.05;102609.72;5057256;28;20040;-65
2023/04/17 08:05:26;;;;;;;49.60;33.78;;;;;;;10.27;72.16;102625.09;5061291;28;20067;-65
2023/04/17 08:07:51;;;;;;;48.42;33.70;;;;;;;10.32;71.95;102627.22;5052754;28;20119;-66
2023/04/17 08:10:16;;;;;;;48.75;34.47;;;;;;;10.31;71.88;102608.88;5061344;28;20028;-66
2023/04/17 08:12:42;;;;;;;46.33;33.22;;;;;;;10.32;71.69;102614.22;5060642;28;20029;-66
2023/04/17 08:15:08;;;;;;;47.55;33.22;;;;;;;10.34;71.42;102608.47;5071821;28;20042;-68
2023/04/17 08:17:34;;;;;;;45.45;32.83;;;;;;;10.36;71.81;102611.88;5070208;28;20044;-68
2023/04/17 08:20:02;;;;;;;48.35;32.95;;;;;;;10.37;71.75;102615.50;5073497;28;20108;-66
2023/04/17 08:22:27;;;;;;;43.78;31.70;;;;;;;10.43;71.42;102612.75;5086949;28;20024;-65
2023/04/17 08:24:56;;;;;;;44.63;31.58;;;;;;;10.45;71.66;102618.97;5077437;28;20033;-64
2023/04/17 08:27:24;;;;;;;42.00;30.05;;;;;;;10.46;71.04;102622.59;5080770;28;20043;-60
2023/04/17 08:29:52;;;;;;;39.30;29.65;;;;;;;10.45;71.14;102616.19;5074772;28;20029;-66
2023/04/17 08:32:18;;;;;;;42.67;30.58;;;;;;;10.46;70.97;102619.81;5085957;28;20589;-66
2023/04/17 08:34:43;;;;;;;40.25;30.35;;;;;;;10.48;71.17;102620.44;5072209;28;20024;-60
2023/04/17 08:37:09;;;;;;;41.17;29.73;;;;;;;10.49;70.67;102620.25;5074274;28;20032;-62
2023/04/17 08:39:34;;;;;;;43.75;30.35;;;;;;;10.48;70.58;102615.75;5091078;28;20529;-66
2023/04/17 08:42:05;;;;;;;43.50;29.58;;;;;;;10.48;70.39;102617.66;5079734;28;20036;-66
2023/04/17 08:44:30;;;;;;;40.80;30.95;;;;;;;10.46;71.02;102626.22;5084425;28;20093;-66
2023/04/17 08:46:59;;;;;;;42.70;30.67;;;;;;;10.48;70.65;102626.84;5090090;28;20024;-66
2023/04/17 08:49:28;;;;;;;41.33;29.20;;;;;;;10.48;70.33;102617.66;5090633;28;20495;-66
2023/04/17 08:51:54;;;;;;;41.28;29.08;;;;;;;10.52;70.19;102621.75;5080545;28;20059;-67
2023/04/17 08:54:20;;;;;;;41.17;28.88;;;;;;;10.49;69.91;102623.03;5081063;28;20052;-67
2023/04/17 08:56:47;;;;;;;41.05;29.35;;;;;;;10.45;70.19;102623.63;5069503;28;20027;-68
2023/04/17 08:59:12;;;;;;;40.35;29.67;;;;;;;10.47;70.16;102625.16;5080018;28;20528;-68
2023/04/17 09:01:38;;;;;;;42.75;30.88;;;;;;;10.49;70.32;102623.03;5089564;28;20039;-68
2023/04/17 09:04:03;;;;;;;44.38;29.55;;;;;;;10.56;70.46;102621.09;5088756;28;20392;-68
2023/04/17 09:06:47;;;;;;;40.97;29.20;;;;;;;10.67;70.30;102621.56;5085983;28;20475;-67
2023/04/17 09:09:13;;;;;;;42.58;29.77;;;;;;;10.67;70.26;102621.56;5070210;28;20032;-65
2023/04/17 09:11:38;;;;;;;41.25;29.73;;;;;;;10.68;70.45;102626.03;5080895;28;20027;-67
2023/04/17 09:14:03;;;;;;;41.17;30.30;;;;;;;10.70;70.16;102618.38;5063013;28;20041;-67
2023/04/17 09:16:28;;;;;;;43.60;30.52;;;;;;;10.75;69.90;102618.59;5058809;28;20079;-67
2023/04/17 09:19:04;;;;;;;42.50;30.67;;;;;;;10.76;70.15;102623.91;5070737;28;20371;-68
2023/04/17 09:21:30;;;;;;;43.35;31.52;;;;;;;10.78;69.82;102627.34;5067107;28;20086;-68
2023/04/17 09:23:58;;;;;;;42.08;30.65;;;;;;;10.81;69.43;102623.31;5052984;28;20408;-68
2023/04/17 09:26:26;;;;;;;44.22;30.65;;;;;;;10.85;69.63;102629.31;5049815;28;20388;-67
2023/04/17 09:29:12;;;;;;;45.72;31.10;;;;;;;10.90;69.78;102629.50;5052792;28;20033;-67
2023/04/17 09:31:39;;;;;;;43.55;31.05;;;;;;;10.91;69.29;102625.66;5049841;28;20416;-67
2023/04/17 09:34:12;;;;;;;41.55;31.13;;;;;;;10.93;69.31;102629.09;5052677;28;20028;-68
2023/04/17 09:36:40;;;;;;;39.97;29.73;;;;;;;10.97;69.37;102620.13;5070285;28;20036;-67
2023/04/17 09:39:22;;;;;;;66.00;33.28;;;;;;;11.02;69.66;102627.81;5063573;28;20533;-68
2023/04/17 09:41:49;;;;;;;43.85;31.20;;;;;;;11.06;69.02;102618.81;5067041;28;20494;-67
2023/04/17 09:44:26;;;;;;;46.88;32.00;;;;;;;11.11;69.27;102614.56;5059404;28;20081;-68
2023/04/17 09:46:52;;;;;;;39.40;30.42;;;;;;;11.17;69.12;102619.28;5059401;28;20397;-67
2023/04/17 09:49:39;;;;;;;41.70;30.05;;;;;;;11.25;69.13;102619.91;5050542;28;20032;-66
2023/04/17 09:52:05;;;;;;;44.22;31.48;;;;;;;11.26;69.12;102609.63;5059904;28;20036;-65
2023/04/17 09:54:32;;;;;;;41.65;30.95;;;;;;;11.26;68.29;102620.75;5064627;28;20052;-69
2023/04/17 09:56:58;;;;;;;40.42;31.23;;;;;;;11.30;68.73;102619.25;5064901;28;20032;-65
2023/04/17 09:59:24;;;;;;;43.30;30.75;;;;;;;11.39;68.78;102617.09;5060543;28;20198;-66
2023/04/17 10:01:52;;;;;;;44.45;30.95;;;;;;;11.43;68.89;102622.00;5055359;28;20031;-67
2023/04/17 10:04:18;;;;;;;43.88;31.80;;;;;;;11.41;67.97;102615.81;5055224;28;20024;-65
2023/04/17 10:06:44;;;;;;;44.03;31.38;;;;;;;11.44;67.81;102615.41;5046851;28;20033;-65
2023/04/17 10:09:09;;;;;;;43.03;30.30;;;;;;;11.50;67.67;102613.66;5067121;28;20024;-71
2023/04/17 10:11:40;;;;;;;42.38;30.48;;;;;;;11.53;67.74;102608.53;5063081;28;20028;-68
2023/04/17 10:14:26;;;;;;;39.80;29.27;;;;;;;11.59;67.75;102605.94;5062857;28;20079;-66
2023/04/17 10:16:53;;;;;;;40.28;30.77;;;;;;;11.62;67.34;102605.50;5064850;28;20459;-68
2023/04/17 10:19:35;;;;;;;39.80;29.55;;;;;;;11.72;67.05;102608.72;5055302;28;20027;-68
2023/04/17 10:22:19;;;;;;;40.47;29.98;;;;;;;11.80;66.81;102602.91;5068649;28;20586;-64
2023/04/17 10:25:11;;;;;;;37.13;29.60;;;;;;;11.90;66.59;102603.31;5070865;28;20037;-69
2023/04/17 10:27:37;;;;;;;42.58;29.45;;;;;;;12.02;65.84;102603.50;5041113;28;20040;-59
2023/04/17 10:30:06;;;;;;;35.45;27.63;;;;;;;12.09;64.19;102606.25;5064818;28;20794;-68
2023/04/17 10:32:33;;;;;;;38.17;28.48;;;;;;;12.16;63.05;102609.88;5078385;28;20495;-70
2023/04/17 10:35:21;;;;;;;37.40;28.80;;;;;;;12.23;62.07;102602.34;5063385;28;20058;-69
2023/04/17 10:37:46;;;;;;;39.33;28.58;;;;;;;12.33;62.64;102597.13;5066233;28;20036;-65
2023/04/17 10:40:19;;;;;;;39.63;28.40;;;;;;;12.36;62.63;102602.28;5064303;28;20025;-68
2023/04/17 10:43:03;;;;;;;39.75;28.52;;;;;;;12.39;63.72;102606.56;5071229;28;20024;-67
2023/04/17 10:45:53;;;;;;;38.33;27.30;;;;;;;12.52;63.55;102603.69;5050969;28;20389;-66
2023/04/17 10:48:44;;;;;;;35.88;26.58;;;;;;;12.63;62.85;102594.63;5058268;28;20036;-66
2023/04/17 10:54:09;;;;;;;37.13;27.15;;;;;;;12.62;61.69;102594.84;5057317;28;20033;-63
2023/04/17 10:56:39;;;;;;;38.72;25.67;;;;;;;12.64;61.26;102598.25;5061018;28;20460;-67
2023/04/17 10:59:06;;;;;;;33.95;25.17;;;;;;;12.63;60.20;102596.53;5064855;28;20530;-68
2023/04/17 11:01:36;;;;;;;35.55;26.17;;;;;;;12.61;60.10;102587.53;5053778;28;20028;-70
2023/04/17 11:04:07;;;;;;;33.78;25.40;;;;;;;12.66;61.30;102590.53;5053656;28;20045;-67
2023/04/17 11:06:37;;;;;;;35.47;25.75;;;;;;;12.72;60.55;102595.19;5054351;28;20127;-68
2023/04/17 11:09:06;;;;;;;37.13;26.70;;;;;;;12.76;60.14;102582.50;5057387;28;20040;-68
2023/04/17 11:11:39;;;;;;;37.80;27.67;;;;;;;12.78;60.68;102585.94;5056464;28;20448;-67